Aérodrome :
LOGIN :

S'inscrire | Disclaimer

   EN    FR    IT 

 










Légende :    VFR   VFR Marginal   IFR   IFR Intensif   IFR Très Intensif
Visi : 
Plafond : 
>= 8 km
>= 3000ft
5 à 8 km
1000 à 3000 ft
1500m à 5 km
500 à 1000 ft
800 à 1500m
200 à 500 ft
< 800m
< 200 ft
Symboles :   Orages  Brouillard  Fortes neiges  Fortes précipitations  Vent > 20 kt
SIGMETs :   Divers  Orages  Givrage  Turbulence  Onde Orograph.  Cendres Volcan.






- Altitude de l'aérodrome : 768 ft
- Code IATA : MXP


LIMC - Milano Malpensa

DERNIER METAR :
  • 271950Z 36012KT CAVOK 05/M01 Q1004 NOSIG

METARs EXPIRÉS :
  • 271920Z 36010KT 9999 BKN070 05/M01 Q1004 NOSIG
  • 271850Z 35011KT 9999 BKN070 05/M02 Q1004 NOSIG
  • 271820Z 01011KT 9999 SCT080 05/M02 Q1004 NOSIG
  • 271750Z 36010KT 9999 BKN065 06/M02 Q1005 NOSIG
  • 271720Z 36012KT 9999 BKN065 07/M03 Q1004 NOSIG

TAF TAF LIMC
Valide du 27 à 18h jusqu'au 29 à 00h UTC


271700Z 2718/2824 36010KT 9999 BKN070
TEMPO 2800/2806 35015G25KT
BECMG 2806/2808 26006KT



MET'MAP, la Météo Aéronautique d'un coup d'oeil ! - Copyright ORBIFLY Décembre 2007 - Disclaimer

ORBIFLY MET'MAP TEAM :

Programmation & Développement : Alexandra Zaïnal
Sur une idée originale de : Baudouin d'Aumeries
Assistance à la programmation : Marc-Olivier Méhu
Soutien technique & logistique : Manuel Goepfert

Contact : metmap@orbifly.com




SOURCES & CREDITS :

   NOAA